Time;durP1;ratioP1;P1;durP2;ratioP2;P2;SDS_P1;SDS_P2;PMS_P1;PMS_P2;Temp;Humidity;BMP_temperature;BMP_pressure;BME280_temperature;BME280_humidity;BME280_pressure;Samples;Min_cycle;Max_cycle;Signal;HPM_P1;HPM_P2
2021/12/08 00:03:56;;;;;;;58.80;28.48;;;;;;;1.20;100.00;100191.19;10119404;28;20051;-71
2021/12/08 00:09:16;;;;;;;56.22;29.23;;;;;;;1.17;100.00;100180.97;10121165;28;20046;-70
2021/12/08 00:14:14;;;;;;;57.40;29.60;;;;;;;1.24;100.00;100173.44;10120040;28;20074;-70
2021/12/08 00:19:10;;;;;;;51.00;26.35;;;;;;;1.26;100.00;100152.44;10117029;28;20397;-70
2021/12/08 00:24:07;;;;;;;61.22;29.92;;;;;;;1.20;100.00;100137.34;10118665;28;20512;-70
2021/12/08 00:29:04;;;;;;;59.60;29.67;;;;;;;1.15;100.00;100107.72;10118822;28;20443;-69
2021/12/08 00:34:01;;;;;;;55.80;29.42;;;;;;;1.14;100.00;100073.78;10113128;28;20063;-71
2021/12/08 00:38:58;;;;;;;60.33;29.23;;;;;;;1.09;100.00;100052.25;10115155;28;20046;-70
2021/12/08 00:43:54;;;;;;;61.83;29.92;;;;;;;1.08;100.00;100056.03;10121414;28;20073;-70
2021/12/08 00:48:51;;;;;;;64.20;30.35;;;;;;;1.14;100.00;100073.78;10114791;28;20501;-69
2021/12/08 00:53:48;;;;;;;56.45;27.45;;;;;;;1.13;100.00;100064.91;10119963;28;20074;-69
2021/12/08 00:58:44;;;;;;;58.85;28.55;;;;;;;1.18;100.00;100070.28;10124229;28;20051;-68
2021/12/08 01:03:56;;;;;;;59.30;28.73;;;;;;;1.18;100.00;100077.56;10112341;28;20498;-68
2021/12/08 01:08:53;;;;;;;58.28;27.58;;;;;;;1.22;100.00;100081.34;10117154;28;20042;-67
2021/12/08 01:13:50;;;;;;;55.17;26.88;;;;;;;1.09;100.00;100098.03;10112367;28;20047;-67
2021/12/08 01:18:47;;;;;;;57.47;26.98;;;;;;;1.14;100.00;100095.31;10120640;28;20406;-73
2021/12/08 01:23:44;;;;;;;54.90;27.50;;;;;;;1.19;100.00;100076.50;10105997;28;20038;-70
2021/12/08 01:28:40;;;;;;;57.60;27.52;;;;;;;1.20;100.00;100070.03;10120858;28;20066;-69
2021/12/08 01:33:37;;;;;;;51.85;25.58;;;;;;;1.26;100.00;100055.47;10123939;28;20082;-70
2021/12/08 01:38:35;;;;;;;50.45;24.30;;;;;;;1.18;100.00;100043.34;10116079;28;20382;-70
2021/12/08 01:43:42;;;;;;;51.92;25.98;;;;;;;1.17;100.00;100038.25;10121600;28;20097;-69
2021/12/08 01:48:41;;;;;;;55.83;24.73;;;;;;;1.23;100.00;100008.34;10121571;28;20042;-70
2021/12/08 01:53:39;;;;;;;49.63;25.73;;;;;;;1.27;100.00;99997.84;10119733;28;20043;-70
2021/12/08 01:58:36;;;;;;;45.13;23.77;;;;;;;1.32;100.00;99991.63;10123372;28;20050;-70
2021/12/08 02:03:35;;;;;;;48.80;24.77;;;;;;;1.20;100.00;99986.53;10117063;28;20078;-69
2021/12/08 02:08:34;;;;;;;48.40;23.80;;;;;;;1.36;100.00;99974.63;10124034;28;20057;-70
2021/12/08 02:13:37;;;;;;;49.33;24.17;;;;;;;1.30;100.00;99973.06;10123368;28;20043;-70
2021/12/08 02:18:37;;;;;;;45.78;24.73;;;;;;;1.32;100.00;99935.88;10129099;28;20624;-70
2021/12/08 02:23:33;;;;;;;44.30;23.63;;;;;;;1.32;100.00;99941.25;10129583;28;20067;-69
2021/12/08 02:28:31;;;;;;;49.22;24.90;;;;;;;1.29;100.00;99941.81;10133457;28;20477;-70
2021/12/08 02:49:17;;;;;;;49.67;24.42;;;;;;;1.39;100.00;99893.31;10125882;28;20417;-70
2021/12/08 02:54:14;;;;;;;44.67;21.48;;;;;;;1.33;100.00;99877.44;10123229;28;20046;-70
2021/12/08 02:59:11;;;;;;;40.53;22.77;;;;;;;1.39;100.00;99871.75;10119083;28;20038;-69
2021/12/08 03:04:09;;;;;;;44.33;22.45;;;;;;;1.42;100.00;99865.81;10128600;28;20046;-68
2021/12/08 03:09:07;;;;;;;38.40;20.08;;;;;;;1.42;100.00;99855.03;10123529;28;20642;-69
2021/12/08 03:14:11;;;;;;;40.20;20.55;;;;;;;1.35;100.00;99870.69;10118165;28;20544;-70
2021/12/08 03:19:08;;;;;;;43.92;22.40;;;;;;;1.40;100.00;99873.34;10118645;28;20093;-70
2021/12/08 03:24:16;;;;;;;43.65;21.75;;;;;;;1.42;100.00;99863.09;10126597;28;20096;-70
2021/12/08 03:29:37;;;;;;;43.15;21.35;;;;;;;1.50;100.00;99855.53;10131570;28;20440;-70
2021/12/08 03:34:36;;;;;;;40.78;21.13;;;;;;;1.44;100.00;99852.88;10133249;28;20046;-70
2021/12/08 03:39:34;;;;;;;33.85;17.65;;;;;;;1.53;100.00;99841.47;10113301;28;20070;-71
2021/12/08 03:44:31;;;;;;;39.60;20.27;;;;;;;1.56;100.00;99824.78;10115756;28;20119;-71
2021/12/08 03:49:29;;;;;;;37.80;19.08;;;;;;;1.58;100.00;99844.97;10121698;28;20104;-71
2021/12/08 03:54:25;;;;;;;36.70;19.48;;;;;;;1.55;100.00;99858.97;10119175;28;20078;-70
2021/12/08 03:59:22;;;;;;;38.63;19.65;;;;;;;1.63;100.00;99854.91;10107769;28;20393;-71
2021/12/08 04:04:20;;;;;;;35.83;17.13;;;;;;;1.64;100.00;99851.13;10128481;28;20049;-71
2021/12/08 04:09:26;;;;;;;32.92;16.42;;;;;;;1.67;100.00;99872.09;10115693;28;20046;-70
2021/12/08 04:14:26;;;;;;;29.45;11.88;;;;;;;1.63;100.00;99863.00;10107097;28;20106;-71
2021/12/08 04:19:24;;;;;;;30.60;16.30;;;;;;;1.65;100.00;99875.09;10106215;28;20046;-71
2021/12/08 04:24:21;;;;;;;30.33;15.02;;;;;;;1.63;100.00;99892.63;10088457;28;20047;-71
2021/12/08 04:29:20;;;;;;;31.83;16.58;;;;;;;1.67;100.00;99888.28;10108544;28;20493;-71
2021/12/08 04:34:26;;;;;;;32.47;16.08;;;;;;;1.66;100.00;99881.28;10110916;28;20038;-67
2021/12/08 04:39:49;;;;;;;32.00;17.08;;;;;;;1.65;100.00;99879.69;10118619;28;20463;-69
2021/12/08 04:44:53;;;;;;;29.20;16.05;;;;;;;1.67;100.00;99877.50;10115309;28;20137;-68
2021/12/08 05:06:07;;;;;;;30.77;16.48;;;;;;;1.37;100.00;99876.59;10098972;28;20122;-68
2021/12/08 05:11:09;;;;;;;34.20;18.40;;;;;;;1.30;100.00;99878.81;10093540;28;20871;-70
2021/12/08 05:16:06;;;;;;;33.35;18.52;;;;;;;1.23;100.00;99873.72;10106097;28;20096;-69
2021/12/08 05:21:32;;;;;;;34.80;19.02;;;;;;;1.04;100.00;99872.69;10117300;28;20105;-70
2021/12/08 05:26:32;;;;;;;38.85;19.30;;;;;;;0.94;100.00;99872.75;10090555;28;20055;-70
2021/12/08 05:31:31;;;;;;;42.15;19.08;;;;;;;0.99;100.00;99873.50;10100513;28;20559;-71
2021/12/08 05:36:34;;;;;;;38.78;20.40;;;;;;;1.02;100.00;99875.69;10085759;28;20081;-71
2021/12/08 05:41:33;;;;;;;37.17;20.65;;;;;;;0.95;100.00;99883.25;10099205;28;20043;-70
2021/12/08 05:46:33;;;;;;;42.55;20.40;;;;;;;0.99;100.00;99876.22;10101557;28;20053;-70
2021/12/08 05:51:34;;;;;;;44.95;22.20;;;;;;;1.01;100.00;99867.88;10098696;28;20141;-69
2021/12/08 05:56:31;;;;;;;39.92;19.75;;;;;;;0.88;100.00;99881.91;10105508;28;20051;-69
2021/12/08 06:01:38;;;;;;;39.97;21.40;;;;;;;0.81;100.00;99887.56;10104274;28;20113;-69
2021/12/08 06:06:36;;;;;;;47.55;22.02;;;;;;;0.79;100.00;99874.41;10106459;28;20054;-70
2021/12/08 06:11:33;;;;;;;43.17;21.58;;;;;;;0.82;100.00;99883.81;10093841;28;20461;-70
2021/12/08 06:16:32;;;;;;;44.60;22.52;;;;;;;0.78;100.00;99883.53;10091885;28;20109;-70
2021/12/08 06:21:31;;;;;;;46.63;24.15;;;;;;;0.74;100.00;99889.75;10096708;28;20051;-69
2021/12/08 06:26:28;;;;;;;43.72;23.55;;;;;;;0.66;100.00;99885.72;10090086;28;20047;-70
2021/12/08 06:31:27;;;;;;;55.92;25.90;;;;;;;0.71;100.00;99898.38;10097480;28;20097;-70
2021/12/08 06:36:32;;;;;;;40.97;21.23;;;;;;;0.69;100.00;99895.94;10100411;28;20051;-70
2021/12/08 06:41:35;;;;;;;47.67;23.10;;;;;;;0.68;100.00;99907.00;10114023;28;20085;-70
2021/12/08 06:46:31;;;;;;;44.40;23.65;;;;;;;0.61;100.00;99893.81;10115222;28;20727;-70
2021/12/08 06:51:36;;;;;;;52.88;25.50;;;;;;;0.66;100.00;99922.59;10128051;28;20081;-70
2021/12/08 06:56:38;;;;;;;51.25;24.98;;;;;;;0.68;100.00;99915.84;10115575;28;20082;-70
2021/12/08 07:01:48;;;;;;;50.17;24.97;;;;;;;0.66;100.00;99918.00;10113381;28;20043;-70
2021/12/08 07:07:01;;;;;;;48.85;24.40;;;;;;;0.57;100.00;99915.06;10100098;28;20497;-70
2021/12/08 07:12:02;;;;;;;49.22;25.58;;;;;;;0.60;100.00;99911.84;10119994;28;20146;-69
2021/12/08 07:17:03;;;;;;;46.67;22.83;;;;;;;0.60;100.00;99925.28;10116856;28;20505;-69
2021/12/08 07:22:04;;;;;;;53.53;26.33;;;;;;;0.59;100.00;99915.59;10116727;28;20133;-69
2021/12/08 07:27:23;;;;;;;47.85;24.15;;;;;;;0.70;100.00;99907.53;10113549;28;20428;-69
2021/12/08 07:32:29;;;;;;;46.78;24.02;;;;;;;0.73;100.00;99923.91;10121845;28;20071;-69
2021/12/08 07:37:30;;;;;;;54.70;26.05;;;;;;;0.75;100.00;99920.97;10116285;28;20491;-69
2021/12/08 07:42:35;;;;;;;41.53;20.38;;;;;;;0.77;100.00;99924.19;10121400;28;20047;-69
2021/12/08 07:47:37;;;;;;;47.92;24.48;;;;;;;0.78;100.00;99920.41;10124412;28;20097;-69
2021/12/08 07:52:40;;;;;;;46.30;24.30;;;;;;;0.82;100.00;99921.50;10120615;28;20552;-69
2021/12/08 07:57:37;;;;;;;;;;;;;;;0.71;100.00;99915.31;10113464;28;20078;-68
2021/12/08 08:02:34;;;;;;;45.38;24.20;;;;;;;0.75;100.00;99915.59;10119160;28;20399;-69
2021/12/08 08:07:33;;;;;;;45.97;23.27;;;;;;;0.81;100.00;99941.38;10115628;28;20095;-69
2021/12/08 08:12:33;;;;;;;45.22;23.92;;;;;;;0.80;100.00;99934.41;10113250;28;20121;-69
2021/12/08 08:17:36;;;;;;;40.47;22.83;;;;;;;0.86;100.00;99943.25;10118053;28;20524;-69
2021/12/08 08:22:32;;;;;;;;;;;;;;;0.89;100.00;99948.91;10113295;28;20715;-69
2021/12/08 08:27:29;;;;;;;40.42;21.35;;;;;;;0.85;100.00;99942.47;10123083;28;19922;-69
2021/12/08 08:32:33;;;;;;;42.28;24.08;;;;;;;0.98;100.00;99947.28;10105304;28;20854;-69
2021/12/08 08:37:29;;;;;;;42.78;22.95;;;;;;;1.01;100.00;99946.72;10108298;28;20082;-69
2021/12/08 08:42:34;;;;;;;40.80;21.65;;;;;;;0.98;100.00;99962.63;10109824;28;20113;-69
2021/12/08 08:47:37;;;;;;;40.08;20.50;;;;;;;1.01;100.00;99962.88;10109351;28;20113;-69
2021/12/08 08:52:37;;;;;;;37.92;21.23;;;;;;;1.04;100.00;99967.75;10108942;28;20074;-68
2021/12/08 08:57:36;;;;;;;37.70;20.45;;;;;;;1.08;100.00;99962.59;10107690;28;20529;-69
2021/12/08 09:02:38;;;;;;;41.20;22.08;;;;;;;1.11;100.00;99961.25;10128497;28;20077;-69
2021/12/08 09:07:39;;;;;;;40.95;22.33;;;;;;;1.12;100.00;99968.25;10109795;28;20105;-69
2021/12/08 09:12:42;;;;;;;39.05;22.52;;;;;;;1.14;100.00;99966.06;10117001;28;20116;-68
2021/12/08 09:17:46;;;;;;;39.13;21.05;;;;;;;1.20;100.00;99973.06;10124143;28;20100;-69
2021/12/08 09:23:00;;;;;;;37.97;21.25;;;;;;;1.24;100.00;99971.47;10123799;28;20148;-69
2021/12/08 09:28:02;;;;;;;38.60;21.95;;;;;;;1.26;100.00;99966.59;10128521;28;20512;-69
2021/12/08 09:33:12;;;;;;;33.65;20.10;;;;;;;1.25;100.00;99981.13;10120849;28;20070;-68
2021/12/08 09:38:14;;;;;;;39.67;21.45;;;;;;;1.37;100.00;99992.44;10118409;28;20042;-69
2021/12/08 09:43:24;;;;;;;36.50;21.02;;;;;;;1.41;100.00;99982.69;10115249;28;20101;-69
2021/12/08 09:48:26;;;;;;;36.67;19.27;;;;;;;1.39;100.00;99984.88;10120401;28;20574;-69
2021/12/08 09:53:24;;;;;;;40.65;21.30;;;;;;;1.54;100.00;99985.91;10117387;28;20061;-69
2021/12/08 09:58:21;;;;;;;33.95;20.00;;;;;;;1.61;100.00;99975.63;10118008;28;20541;-69
2021/12/08 10:03:17;;;;;;;35.33;20.80;;;;;;;1.59;100.00;99975.09;10115138;28;20050;-69
2021/12/08 10:08:14;;;;;;;35.40;21.02;;;;;;;1.71;100.00;99970.19;10115048;28;20085;-68
2021/12/08 10:13:12;;;;;;;39.47;20.58;;;;;;;1.68;100.00;99981.53;10119973;28;20046;-69
2021/12/08 10:18:10;;;;;;;37.03;20.25;;;;;;;1.74;100.00;99975.03;10124608;28;20050;-69
2021/12/08 10:23:11;;;;;;;34.92;20.02;;;;;;;1.71;100.00;99967.50;10123108;28;20096;-69
2021/12/08 10:28:27;;;;;;;33.50;18.17;;;;;;;1.78;100.00;99976.09;10118959;28;20141;-69
2021/12/08 10:33:55;;;;;;;32.08;18.77;;;;;;;1.87;100.00;99973.63;10128400;28;20034;-69
2021/12/08 10:38:52;;;;;;;31.80;17.90;;;;;;;1.88;100.00;99976.03;10119009;28;20468;-69
2021/12/08 10:43:59;;;;;;;37.67;17.35;;;;;;;1.89;100.00;99983.03;10111383;28;20144;-69
2021/12/08 10:49:19;;;;;;;31.48;18.08;;;;;;;2.04;100.00;99962.44;10127977;28;20128;-69
2021/12/08 10:54:27;;;;;;;27.75;15.70;;;;;;;2.05;100.00;99956.00;10121595;28;20038;-69
2021/12/08 10:59:48;;;;;;;35.03;19.25;;;;;;;2.17;100.00;99961.03;10118943;28;20046;-69
2021/12/08 11:04:45;;;;;;;31.17;17.73;;;;;;;2.11;100.00;99962.94;10125082;28;20105;-69
2021/12/08 11:09:42;;;;;;;28.95;17.20;;;;;;;2.21;100.00;99960.19;10118571;28;20106;-69
2021/12/08 11:14:49;;;;;;;33.70;18.13;;;;;;;2.25;100.00;99958.56;10108312;28;20101;-69
2021/12/08 11:19:47;;;;;;;28.27;16.87;;;;;;;2.28;100.00;99958.00;10090553;28;20070;-69
2021/12/08 11:24:56;;;;;;;25.45;15.00;;;;;;;2.23;100.00;99970.72;10101143;28;20043;-69
2021/12/08 11:29:53;;;;;;;34.70;16.80;;;;;;;2.33;100.00;99957.16;10105258;28;20460;-69
2021/12/08 11:34:51;;;;;;;33.67;16.50;;;;;;;2.34;100.00;99961.44;10099569;28;20687;-69
2021/12/08 11:39:55;;;;;;;33.58;17.98;;;;;;;2.43;100.00;99967.03;10099197;28;20448;-69
2021/12/08 11:44:56;;;;;;;31.40;16.90;;;;;;;2.38;100.00;99983.28;10104804;28;20044;-69
2021/12/08 11:49:56;;;;;;;29.88;17.83;;;;;;;2.39;100.00;99990.28;10108181;28;20557;-69
2021/12/08 11:54:56;;;;;;;33.50;17.85;;;;;;;2.45;100.00;99983.75;10125036;28;20047;-69
2021/12/08 12:00:10;;;;;;;29.40;16.95;;;;;;;2.48;100.00;99985.88;10122533;28;20105;-69
2021/12/08 12:05:11;;;;;;;30.33;17.05;;;;;;;2.53;100.00;99988.56;10122313;28;20452;-69
2021/12/08 12:10:13;;;;;;;26.05;16.13;;;;;;;2.59;100.00;99987.44;10126272;28;20057;-69
2021/12/08 12:15:13;;;;;;;30.70;17.08;;;;;;;2.63;100.00;99980.38;10110093;28;20113;-69
2021/12/08 12:20:20;;;;;;;28.70;16.70;;;;;;;2.56;100.00;99985.31;10121554;28;22325;-69
2021/12/08 12:25:36;;;;;;;29.27;16.27;;;;;;;2.61;100.00;99998.75;10122802;28;20086;-69
2021/12/08 12:30:49;;;;;;;29.58;16.45;;;;;;;2.68;100.00;100004.63;10127467;28;20078;-69
2021/12/08 12:35:51;;;;;;;34.90;16.95;;;;;;;2.67;100.00;100011.13;10108666;28;20047;-69
2021/12/08 12:40:51;;;;;;;27.45;13.63;;;;;;;2.68;100.00;99999.22;10120160;28;20093;-69
2021/12/08 12:46:01;;;;;;;29.77;16.73;;;;;;;2.66;100.00;100001.41;10124717;28;20073;-69
2021/12/08 12:51:04;;;;;;;28.50;16.85;;;;;;;2.66;100.00;99998.69;10115873;28;20531;-69
2021/12/08 12:56:01;;;;;;;33.42;16.75;;;;;;;2.62;100.00;100005.78;10126038;28;20142;-69
2021/12/08 13:01:09;;;;;;;34.35;17.90;;;;;;;2.62;100.00;100011.16;10101526;28;20043;-69
2021/12/08 13:06:07;;;;;;;31.35;17.08;;;;;;;2.58;100.00;100014.72;10098594;28;20081;-69
2021/12/08 13:11:41;;;;;;;31.98;17.25;;;;;;;2.62;100.00;100011.16;10093774;28;20093;-69
2021/12/08 13:16:37;;;;;;;35.38;18.08;;;;;;;2.64;100.00;100013.56;10097780;28;20070;-69
2021/12/08 13:21:46;;;;;;;32.30;18.42;;;;;;;2.64;100.00;100010.88;10103234;28;20046;-69
2021/12/08 13:26:48;;;;;;;35.38;18.52;;;;;;;2.71;100.00;100020.25;10104581;28;20046;-70
2021/12/08 13:31:59;;;;;;;36.50;19.20;;;;;;;2.81;100.00;100030.19;10113543;28;20054;-71
2021/12/08 13:37:25;;;;;;;30.83;17.35;;;;;;;2.72;100.00;100019.19;10107542;28;20097;-68
2021/12/08 13:42:30;;;;;;;28.45;17.27;;;;;;;2.81;100.00;100023.94;10109302;28;20058;-70
2021/12/08 13:47:33;;;;;;;32.50;18.05;;;;;;;2.83;100.00;100019.06;10115769;28;20459;-71
2021/12/08 13:52:35;;;;;;;32.58;18.42;;;;;;;2.81;100.00;100018.56;10117985;28;20050;-70
2021/12/08 13:57:31;;;;;;;32.33;18.25;;;;;;;2.80;100.00;100027.75;10104719;28;20042;-70
2021/12/08 14:02:44;;;;;;;39.15;18.95;;;;;;;2.81;100.00;100038.28;10105482;28;20516;-70
2021/12/08 14:07:53;;;;;;;34.05;18.98;;;;;;;2.83;100.00;100037.97;10097234;28;20046;-70
2021/12/08 14:12:53;;;;;;;34.28;18.15;;;;;;;2.63;100.00;100023.56;10101333;28;20070;-70
2021/12/08 14:18:10;;;;;;;40.13;19.98;;;;;;;2.70;100.00;100032.16;10104517;28;20134;-70
2021/12/08 14:23:06;;;;;;;36.95;18.42;;;;;;;2.49;100.00;100033.38;10100853;28;20088;-70
2021/12/08 14:28:39;;;;;;;39.60;18.13;;;;;;;2.59;100.00;100038.69;10110850;28;20124;-70
2021/12/08 14:33:36;;;;;;;37.22;19.20;;;;;;;2.55;100.00;100048.44;10115280;28;20047;-70
2021/12/08 14:38:38;;;;;;;32.35;17.85;;;;;;;2.61;100.00;100058.13;10119743;28;20043;-70
2021/12/08 14:43:38;;;;;;;30.15;18.08;;;;;;;2.69;100.00;100065.63;10117235;28;20780;-70
2021/12/08 14:48:35;;;;;;;31.63;18.48;;;;;;;2.63;100.00;100066.75;10116908;28;20471;-70
2021/12/08 14:53:35;;;;;;;32.90;19.00;;;;;;;2.63;100.00;100066.75;10113377;28;20105;-70
2021/12/08 14:58:32;;;;;;;28.83;17.40;;;;;;;2.60;100.00;100072.72;10113763;28;20047;-70
2021/12/08 15:03:38;;;;;;;27.63;16.05;;;;;;;2.53;100.00;100056.84;10111253;28;20097;-70
2021/12/08 15:08:40;;;;;;;31.00;17.77;;;;;;;2.63;100.00;100055.94;10102885;28;20082;-70
2021/12/08 15:13:36;;;;;;;35.53;19.88;;;;;;;2.60;100.00;100078.13;10120877;28;20047;-70
2021/12/08 15:18:34;;;;;;;34.45;16.60;;;;;;;2.52;100.00;100092.19;10118973;28;20134;-69
2021/12/08 15:23:49;;;;;;;38.35;19.63;;;;;;;2.56;100.00;100093.25;10142999;28;20042;-70
2021/12/08 15:28:48;;;;;;;30.40;17.40;;;;;;;2.57;100.00;100105.66;10121681;28;20046;-70
2021/12/08 15:33:47;;;;;;;35.58;18.10;;;;;;;2.58;100.00;100107.28;10115844;28;20043;-70
2021/12/08 15:38:51;;;;;;;30.83;17.58;;;;;;;2.58;100.00;100118.06;10126301;28;20038;-70
2021/12/08 15:43:47;;;;;;;31.42;18.30;;;;;;;2.52;100.00;100124.56;10124864;28;20472;-70
2021/12/08 15:48:51;;;;;;;35.90;18.50;;;;;;;2.59;100.00;100125.06;10110604;28;20468;-70
2021/12/08 15:53:49;;;;;;;32.95;17.70;;;;;;;2.61;100.00;100116.69;10105399;28;20501;-72
2021/12/08 15:59:23;;;;;;;33.85;17.27;;;;;;;2.64;100.00;100116.13;10113613;28;20085;-70
2021/12/08 16:04:25;;;;;;;33.40;19.40;;;;;;;2.61;100.00;100114.81;10115558;28;21025;-70
2021/12/08 16:09:27;;;;;;;33.80;18.98;;;;;;;2.66;100.00;100120.16;10117416;28;20101;-69
2021/12/08 16:14:33;;;;;;;34.40;19.20;;;;;;;2.53;100.00;100126.19;10120457;28;20054;-69
2021/12/08 16:19:40;;;;;;;40.75;20.77;;;;;;;2.61;100.00;100122.91;10117332;28;20053;-69
2021/12/08 16:24:38;;;;;;;34.50;20.05;;;;;;;2.44;100.00;100117.06;10122812;28;20570;-70
2021/12/08 16:29:35;;;;;;;37.42;21.38;;;;;;;2.63;100.00;100131.53;10122137;28;20660;-70
2021/12/08 16:34:32;;;;;;;41.38;21.95;;;;;;;2.56;100.00;100125.63;10115654;28;20447;-70
2021/12/08 16:39:40;;;;;;;39.45;21.45;;;;;;;2.58;100.00;100134.25;10124959;28;20500;-70
2021/12/08 16:44:38;;;;;;;38.83;22.40;;;;;;;2.42;100.00;100119.25;10125831;28;20042;-70
2021/12/08 16:49:35;;;;;;;38.25;21.83;;;;;;;2.47;100.00;100119.22;10125815;28;20058;-70
2021/12/08 16:54:32;;;;;;;43.92;23.98;;;;;;;2.43;100.00;100121.66;10121927;28;20050;-69
2021/12/08 16:59:29;;;;;;;41.50;22.98;;;;;;;2.34;100.00;100127.91;10114477;28;20042;-69
2021/12/08 17:04:26;;;;;;;39.95;22.35;;;;;;;2.42;100.00;100133.53;10121693;28;20054;-69
2021/12/08 17:09:22;;;;;;;41.45;22.05;;;;;;;2.28;100.00;100140.63;10107959;28;20078;-69
2021/12/08 17:14:20;;;;;;;44.67;23.80;;;;;;;2.27;100.00;100150.59;10112160;28;20203;-69
2021/12/08 17:19:16;;;;;;;36.78;19.80;;;;;;;2.22;100.00;100153.31;10118981;28;20070;-69
2021/12/08 17:24:14;;;;;;;39.17;22.58;;;;;;;2.29;100.00;100170.00;10095185;28;20070;-69
2021/12/08 17:29:12;;;;;;;38.33;21.77;;;;;;;2.40;100.00;100169.97;10101385;28;20050;-70
2021/12/08 17:34:09;;;;;;;44.13;24.05;;;;;;;2.37;100.00;100168.66;10105748;28;20039;-70
2021/12/08 17:39:06;;;;;;;39.95;21.98;;;;;;;2.31;100.00;100177.81;10100206;28;20043;-70
2021/12/08 17:44:03;;;;;;;42.95;22.88;;;;;;;2.34;100.00;100171.06;10100472;28;20149;-69
2021/12/08 17:49:01;;;;;;;42.55;22.20;;;;;;;2.31;100.00;100178.63;10102666;28;20051;-69
2021/12/08 17:53:58;;;;;;;41.42;22.38;;;;;;;2.33;100.00;100204.53;10092911;28;20047;-69
2021/12/08 17:58:54;;;;;;;38.28;21.70;;;;;;;2.34;100.00;100206.16;10093417;28;20053;-69
2021/12/08 18:03:58;;;;;;;42.83;21.77;;;;;;;2.37;100.00;100208.28;10106024;28;20110;-69
2021/12/08 18:08:57;;;;;;;36.22;20.38;;;;;;;2.29;100.00;100218.56;10113163;28;20509;-69
2021/12/08 18:13:53;;;;;;;43.53;22.83;;;;;;;2.34;100.00;100220.44;10117869;28;20085;-69
2021/12/08 18:18:51;;;;;;;47.03;22.23;;;;;;;2.36;100.00;100225.56;10114546;28;20046;-69
2021/12/08 18:23:48;;;;;;;40.83;21.30;;;;;;;2.24;100.00;100234.78;10116750;28;20054;-69
2021/12/08 18:28:45;;;;;;;47.50;24.10;;;;;;;2.28;100.00;100243.94;10123967;28;20058;-69
2021/12/08 18:33:47;;;;;;;39.38;20.77;;;;;;;2.23;100.00;100257.44;10117204;28;20038;-69
2021/12/08 18:38:45;;;;;;;40.50;21.75;;;;;;;2.21;100.00;100235.31;10127394;28;20487;-69
2021/12/08 18:43:43;;;;;;;40.10;22.08;;;;;;;2.25;100.00;100228.31;10128125;28;20047;-69
2021/12/08 18:48:44;;;;;;;42.20;20.98;;;;;;;2.09;100.00;100245.59;10097980;28;20051;-69
2021/12/08 18:53:46;;;;;;;37.90;20.02;;;;;;;2.09;100.00;100240.22;10102662;28;20129;-68
2021/12/08 18:58:44;;;;;;;43.40;22.05;;;;;;;2.25;100.00;100244.50;10128223;28;20074;-69
2021/12/08 19:03:43;;;;;;;40.08;20.35;;;;;;;2.25;100.00;100233.69;10119071;28;20146;-69
2021/12/08 19:08:40;;;;;;;38.33;20.50;;;;;;;2.16;100.00;100240.75;10116527;28;20058;-69
2021/12/08 19:13:37;;;;;;;38.20;20.40;;;;;;;2.22;100.00;100247.72;10128975;28;20039;-70
2021/12/08 19:18:34;;;;;;;42.72;21.05;;;;;;;2.04;100.00;100264.47;10114984;28;20044;-69
2021/12/08 19:23:32;;;;;;;43.03;22.30;;;;;;;2.29;100.00;100264.41;10119064;28;20517;-69
2021/12/08 19:28:30;;;;;;;44.33;22.35;;;;;;;2.21;100.00;100259.59;10119518;28;20482;-68
2021/12/08 19:33:26;;;;;;;38.25;20.83;;;;;;;2.23;100.00;100257.44;10132167;28;20058;-69
2021/12/08 19:38:22;;;;;;;39.25;19.27;;;;;;;2.14;100.00;100261.78;10117360;28;20078;-68
2021/12/08 19:43:19;;;;;;;37.97;19.50;;;;;;;2.15;100.00;100257.97;10129281;28;20050;-69
2021/12/08 19:48:21;;;;;;;41.60;22.48;;;;;;;2.04;100.00;100275.25;10125517;28;20109;-69
2021/12/08 19:53:18;;;;;;;38.92;20.92;;;;;;;2.05;100.00;100276.88;10126132;28;20070;-69
2021/12/08 19:58:16;;;;;;;44.90;22.65;;;;;;;2.13;100.00;100283.63;10127934;28;20077;-69
2021/12/08 20:03:14;;;;;;;42.88;21.27;;;;;;;1.99;100.00;100275.28;10122535;28;20436;-69
2021/12/08 20:08:11;;;;;;;43.95;22.00;;;;;;;2.03;100.00;100263.66;10117556;28;20104;-69
2021/12/08 20:13:09;;;;;;;47.33;22.25;;;;;;;1.95;100.00;100266.09;10123926;28;20042;-69
2021/12/08 20:18:12;;;;;;;45.08;21.45;;;;;;;1.94;100.00;100277.97;10101138;28;20543;-70
2021/12/08 20:23:08;;;;;;;47.57;22.70;;;;;;;1.54;100.00;100288.47;10095488;28;20552;-69
2021/12/08 20:28:05;;;;;;;48.65;24.90;;;;;;;1.72;100.00;100289.84;10106428;28;20497;-69
2021/12/08 20:33:03;;;;;;;48.42;22.42;;;;;;;1.46;100.00;100292.53;10121880;28;20089;-69
2021/12/08 20:38:04;;;;;;;48.88;24.55;;;;;;;1.68;100.00;100294.16;10118493;28;20084;-69
2021/12/08 20:43:02;;;;;;;48.83;23.25;;;;;;;1.68;100.00;100302.25;10121449;28;20047;-69
2021/12/08 20:47:59;;;;;;;47.75;24.10;;;;;;;1.57;100.00;100303.31;10119026;28;20102;-69
2021/12/08 20:52:56;;;;;;;47.95;23.33;;;;;;;1.72;100.00;100311.41;10129736;28;20038;-69
2021/12/08 20:57:54;;;;;;;47.55;24.02;;;;;;;1.74;100.00;100306.56;10116720;28;20042;-69
2021/12/08 21:02:52;;;;;;;45.63;24.30;;;;;;;1.73;100.00;100321.09;10121441;28;20109;-69
2021/12/08 21:07:48;;;;;;;45.53;22.00;;;;;;;1.80;100.00;100318.94;10126484;28;20505;-71
2021/12/08 21:12:45;;;;;;;48.40;23.85;;;;;;;1.87;100.00;100314.09;10121516;28;20128;-70
2021/12/08 21:17:45;;;;;;;48.95;23.38;;;;;;;1.71;100.00;100331.34;10112465;28;20053;-70
2021/12/08 21:22:42;;;;;;;49.83;25.02;;;;;;;1.94;100.00;100334.59;10111623;28;20568;-71
2021/12/08 21:27:38;;;;;;;50.78;25.02;;;;;;;1.98;100.00;100319.50;10107722;28;20070;-71
2021/12/08 21:32:35;;;;;;;45.80;22.42;;;;;;;2.04;100.00;100319.25;10103296;28;20661;-71
2021/12/08 21:37:32;;;;;;;50.42;25.45;;;;;;;1.99;100.00;100315.72;10107160;28;20102;-71
2021/12/08 21:42:29;;;;;;;49.17;24.88;;;;;;;1.86;100.00;100306.31;10109844;28;20055;-69
2021/12/08 21:47:29;;;;;;;46.55;24.05;;;;;;;1.86;100.00;100304.41;10100403;28;20043;-69
2021/12/08 21:52:26;;;;;;;54.05;26.83;;;;;;;2.02;100.00;100299.00;10102721;28;20051;-69
2021/12/08 21:57:22;;;;;;;49.92;24.70;;;;;;;2.07;100.00;100291.72;10099278;28;20128;-69
2021/12/08 22:02:19;;;;;;;49.13;23.77;;;;;;;1.91;100.00;100287.41;10091219;28;20074;-69
2021/12/08 22:07:16;;;;;;;50.55;26.52;;;;;;;1.96;100.00;100289.31;10093430;28;20051;-69
2021/12/08 22:12:12;;;;;;;54.60;25.83;;;;;;;1.92;100.00;100293.63;10105694;28;20043;-71
2021/12/08 22:17:09;;;;;;;49.42;24.40;;;;;;;1.96;100.00;100294.69;10118221;28;20453;-72
2021/12/08 22:22:05;;;;;;;49.53;24.00;;;;;;;1.91;100.00;100303.59;10129370;28;21274;-72
2021/12/08 22:27:02;;;;;;;51.70;26.35;;;;;;;1.86;100.00;100311.69;10115630;28;20081;-71
2021/12/08 22:31:58;;;;;;;47.65;24.17;;;;;;;1.86;100.00;100323.28;10127017;28;20047;-71
2021/12/08 22:36:55;;;;;;;53.85;25.52;;;;;;;1.84;100.00;100328.13;10127495;28;20094;-69
2021/12/08 22:41:52;;;;;;;51.38;24.40;;;;;;;1.80;100.00;100350.50;10122509;28;20097;-69
2021/12/08 22:46:48;;;;;;;50.97;25.02;;;;;;;1.83;100.00;100347.25;10130739;28;20066;-69
2021/12/08 22:51:46;;;;;;;51.42;24.52;;;;;;;1.81;100.00;100357.50;10134330;28;20505;-70
2021/12/08 22:56:42;;;;;;;49.47;23.30;;;;;;;1.78;100.00;100348.06;10123715;28;20617;-69
2021/12/08 23:01:39;;;;;;;51.90;25.17;;;;;;;1.70;100.00;100355.88;10135315;28;20084;-69
2021/12/08 23:06:36;;;;;;;52.20;25.60;;;;;;;1.85;100.00;100348.59;10123326;28;20441;-71
2021/12/08 23:11:34;;;;;;;47.25;23.80;;;;;;;1.81;100.00;100357.50;10130188;28;20515;-69